Terminal Aerodrome Forecast
Issued by NWS

Home | Current Version | Previous Version | Text Only | Print | Product List | Glossary On
Versions: 1 2 3 4 5 6 7 8 9 10 11 12 13 14 15 16 17 18 19 20 21 22 23 24 25 26
000
FTUS45 KREV 091125
TAFCXP
TAF
KCXP 091125Z 0912/1012 16011KT P6SM BKN050 BKN100
     FM092200 19011G18KT P6SM BKN045 BKN080 WS020/25040KT
     FM100500 21014G28KT P6SM BKN040 BKN070 WS020/25050KT
     FM100700 22015G30KT P6SM -SHRA SCT020 BKN040 OVC080
      WS020/25045KT=

USA.gov is the U.S. government's official web portal to all federal, state and local government web resources and services.